Time;durP1;ratioP1;P1;durP2;ratioP2;P2;SDS_P1;SDS_P2;PMS_P1;PMS_P2;Temp;Humidity;BMP_temperature;BMP_pressure;BME280_temperature;BME280_humidity;BME280_pressure;Samples;Min_cycle;Max_cycle;Signal;HPM_P1;HPM_P2
2021/09/28 00:01:56;;;;;;;6.30;1.63;;;20.70;63.80;;;;;;5113707;28;20039;-61
2021/09/28 00:04:22;;;;;;;5.00;1.40;;;20.70;63.70;;;;;;5113607;28;20031;-61
2021/09/28 00:06:47;;;;;;;3.83;1.27;;;20.70;63.70;;;;;;5113774;28;20020;-61
2021/09/28 00:09:13;;;;;;;3.92;1.35;;;20.70;63.80;;;;;;5113410;28;20085;-61
2021/09/28 00:11:38;;;;;;;3.83;1.48;;;20.70;63.70;;;;;;5113361;28;20391;-61
2021/09/28 00:14:04;;;;;;;3.50;1.27;;;20.80;63.70;;;;;;5113586;28;20023;-61
2021/09/28 00:16:30;;;;;;;7.43;1.50;;;20.70;63.70;;;;;;5095183;28;20379;-61
2021/09/28 00:18:58;;;;;;;4.10;1.25;;;20.70;63.80;;;;;;5113275;28;20537;-61
2021/09/28 00:21:24;;;;;;;8.80;1.33;;;20.70;63.80;;;;;;5113605;28;20040;-61
2021/09/28 00:23:50;;;;;;;3.67;1.35;;;20.70;63.80;;;;;;5113609;28;20034;-61
2021/09/28 00:26:15;;;;;;;4.00;1.23;;;20.70;63.80;;;;;;5113238;28;20020;-61
2021/09/28 00:28:41;;;;;;;4.80;1.40;;;20.70;63.90;;;;;;5113201;28;20030;-62
2021/09/28 00:31:06;;;;;;;3.58;1.17;;;20.70;63.80;;;;;;5113315;28;20050;-61
2021/09/28 00:33:32;;;;;;;3.13;1.35;;;20.70;63.80;;;;;;5113213;28;20031;-61
2021/09/28 00:35:58;;;;;;;4.10;1.48;;;20.70;63.80;;;;;;5113236;28;20123;-61
2021/09/28 00:38:23;;;;;;;4.75;1.38;;;20.60;63.80;;;;;;5113006;28;20046;-61
2021/09/28 00:40:49;;;;;;;4.32;1.58;;;20.60;63.80;;;;;;5113074;28;20038;-61
2021/09/28 00:43:15;;;;;;;4.32;1.40;;;20.60;63.80;;;;;;5113184;28;20020;-61
2021/09/28 00:45:40;;;;;;;5.13;1.45;;;20.70;63.80;;;;;;5113116;28;20020;-61
2021/09/28 00:48:06;;;;;;;4.43;1.45;;;20.60;63.80;;;;;;5113179;28;20089;-61
2021/09/28 00:50:31;;;;;;;5.90;1.50;;;20.60;63.80;;;;;;5112972;28;20520;-61
2021/09/28 00:52:58;;;;;;;2.70;1.10;;;20.50;63.80;;;;;;5113007;28;20020;-60
2021/09/28 00:55:27;;;;;;;4.40;1.10;;;20.60;63.80;;;;;;5113259;28;20112;-61
2021/09/28 00:57:55;;;;;;;3.65;1.17;;;20.60;63.80;;;;;;5113226;28;20027;-60
2021/09/28 01:00:21;;;;;;;3.65;1.25;;;20.60;63.80;;;;;;5112922;28;20467;-61
2021/09/28 01:02:47;;;;;;;5.43;1.40;;;20.60;63.80;;;;;;5113084;28;20100;-61
2021/09/28 01:05:12;;;;;;;3.85;1.55;;;20.60;63.90;;;;;;5112872;28;20016;-61
2021/09/28 01:07:38;;;;;;;2.80;1.20;;;20.50;63.90;;;;;;5115230;28;20035;-61
2021/09/28 01:10:04;;;;;;;7.55;1.67;;;20.50;63.80;;;;;;5116931;28;20026;-61
2021/09/28 01:12:29;;;;;;;4.03;1.25;;;20.50;63.80;;;;;;5116702;28;20506;-62
2021/09/28 01:14:55;;;;;;;4.25;1.33;;;20.50;63.90;;;;;;5116751;28;20104;-61
2021/09/28 01:17:21;;;;;;;3.25;1.27;;;20.50;63.80;;;;;;5116845;28;20019;-61
2021/09/28 01:19:47;;;;;;;8.48;1.75;;;20.50;63.90;;;;;;5116810;28;20103;-61
2021/09/28 01:22:14;;;;;;;3.40;1.35;;;20.50;63.90;;;;;;5116240;28;20036;-61
2021/09/28 01:24:44;;;;;;;4.85;1.52;;;20.50;63.80;;;;;;5116431;28;20032;-61
2021/09/28 01:27:10;;;;;;;4.72;1.60;;;20.50;63.90;;;;;;5116349;28;20102;-62
2021/09/28 01:29:35;;;;;;;3.75;1.23;;;20.50;63.90;;;;;;5116313;28;20054;-62
2021/09/28 01:32:01;;;;;;;5.30;1.00;;;20.50;63.90;;;;;;5116322;28;20027;-61
2021/09/28 01:34:26;;;;;;;4.82;1.40;;;20.50;63.90;;;;;;5116267;28;20031;-61
2021/09/28 01:36:52;;;;;;;4.28;1.42;;;20.50;63.90;;;;;;5116180;28;20386;-62
2021/09/28 01:39:19;;;;;;;3.80;1.48;;;20.50;63.80;;;;;;5116148;28;20074;-61
2021/09/28 01:41:45;;;;;;;3.55;1.23;;;20.50;63.90;;;;;;5116108;28;20024;-61
2021/09/28 01:44:13;;;;;;;4.80;1.30;;;20.50;63.90;;;;;;5116365;28;20028;-61
2021/09/28 01:46:40;;;;;;;4.95;1.15;;;20.50;63.90;;;;;;5097824;28;20486;-61
2021/09/28 01:49:07;;;;;;;2.97;1.27;;;20.40;63.90;;;;;;5116055;28;20152;-61
2021/09/28 01:51:33;;;;;;;4.22;1.33;;;20.40;63.90;;;;;;5115777;28;20023;-62
2021/09/28 01:53:59;;;;;;;4.30;1.30;;;20.50;63.90;;;;;;5115894;28;20051;-61
2021/09/28 01:56:26;;;;;;;4.97;1.40;;;20.40;63.90;;;;;;5116020;28;20118;-61
2021/09/28 01:58:56;;;;;;;5.90;1.73;;;20.40;63.90;;;;;;5097483;28;20027;-61
2021/09/28 02:01:22;;;;;;;4.80;1.40;;;20.40;63.90;;;;;;5115957;28;20512;-61
2021/09/28 02:03:47;;;;;;;5.53;1.65;;;20.40;63.90;;;;;;5115991;28;20063;-61
2021/09/28 02:06:14;;;;;;;5.30;1.60;;;20.40;63.90;;;;;;5115602;28;20030;-61
2021/09/28 02:08:40;;;;;;;3.25;1.20;;;20.40;64.00;;;;;;5115527;28;20467;-61
2021/09/28 02:11:05;;;;;;;3.50;1.42;;;20.40;63.90;;;;;;5115545;28;20022;-61
2021/09/28 02:13:31;;;;;;;6.60;1.40;;;20.40;63.90;;;;;;5115637;28;20089;-61
2021/09/28 02:15:57;;;;;;;4.40;1.20;;;20.40;63.90;;;;;;5115567;28;20466;-61
2021/09/28 02:18:22;;;;;;;4.22;1.30;;;20.40;63.90;;;;;;5114514;28;20055;-61
2021/09/28 02:20:48;;;;;;;3.92;1.23;;;20.40;63.90;;;;;;5115272;28;20020;-61
2021/09/28 02:23:13;;;;;;;4.07;1.25;;;20.40;63.90;;;;;;5097050;28;20077;-61
2021/09/28 02:25:39;;;;;;;3.40;1.35;;;20.40;63.90;;;;;;5115261;28;20107;-61
2021/09/28 02:28:05;;;;;;;4.68;1.52;;;20.30;64.00;;;;;;5115567;28;20055;-61
2021/09/28 02:30:30;;;;;;;4.03;1.33;;;20.30;64.00;;;;;;5115461;28;20025;-61
2021/09/28 02:32:56;;;;;;;3.15;0.98;;;20.30;64.00;;;;;;5115146;28;20026;-61
2021/09/28 02:35:23;;;;;;;3.50;1.55;;;20.30;64.00;;;;;;5115198;28;20084;-61
2021/09/28 02:37:48;;;;;;;6.05;1.95;;;20.30;64.00;;;;;;5114926;28;20036;-60
2021/09/28 02:40:15;;;;;;;4.88;1.40;;;20.30;64.00;;;;;;5115071;28;20375;-62
2021/09/28 02:42:41;;;;;;;5.57;1.50;;;20.30;63.90;;;;;;5114855;28;20028;-61
2021/09/28 02:45:07;;;;;;;6.88;1.80;;;20.30;63.90;;;;;;5114965;28;20023;-61
2021/09/28 02:47:33;;;;;;;5.25;1.48;;;20.30;63.90;;;;;;5115094;28;20375;-60
2021/09/28 02:49:58;;;;;;;3.72;1.48;;;20.20;64.00;;;;;;5114758;28;20486;-61
2021/09/28 02:52:24;;;;;;;2.70;1.13;;;20.30;64.00;;;;;;5096804;28;20032;-61
2021/09/28 02:54:50;;;;;;;3.22;1.13;;;20.20;64.00;;;;;;5115290;28;20020;-61
2021/09/28 02:57:16;;;;;;;4.07;1.33;;;20.30;64.00;;;;;;5096467;28;20028;-61
2021/09/28 02:59:42;;;;;;;3.65;1.30;;;20.30;63.90;;;;;;5114659;28;20498;-61
2021/09/28 03:02:08;;;;;;;5.38;1.30;;;20.20;63.90;;;;;;5114441;28;20390;-59
2021/09/28 03:04:34;;;;;;;4.63;1.67;;;20.20;63.90;;;;;;5114477;28;20101;-61
2021/09/28 03:06:59;;;;;;;3.47;1.30;;;20.20;63.90;;;;;;5114690;28;20031;-61
2021/09/28 03:09:25;;;;;;;3.67;1.40;;;20.20;64.00;;;;;;5114689;28;20027;-61
2021/09/28 03:11:50;;;;;;;3.67;1.60;;;20.20;64.00;;;;;;5114642;28;20035;-61
2021/09/28 03:14:16;;;;;;;3.45;1.27;;;20.20;64.00;;;;;;5114329;28;20027;-62
2021/09/28 03:16:42;;;;;;;3.67;1.33;;;20.20;64.00;;;;;;5114334;28;20509;-61
2021/09/28 03:19:07;;;;;;;4.82;1.35;;;20.20;64.00;;;;;;5114541;28;20016;-61
2021/09/28 03:21:33;;;;;;;5.13;1.45;;;20.10;64.00;;;;;;5114104;28;20475;-61
2021/09/28 03:23:58;;;;;;;4.63;1.48;;;20.20;64.00;;;;;;5114432;28;20034;-61
2021/09/28 03:26:25;;;;;;;3.92;1.33;;;20.20;64.00;;;;;;5114327;28;20022;-61
2021/09/28 03:28:51;;;;;;;3.45;1.33;;;20.10;64.00;;;;;;5114074;28;20532;-61
2021/09/28 03:31:17;;;;;;;4.03;1.40;;;20.10;63.90;;;;;;5095846;28;20038;-61
2021/09/28 03:33:43;;;;;;;2.30;1.00;;;20.20;64.00;;;;;;5114227;28;20028;-62
2021/09/28 03:36:08;;;;;;;5.78;1.42;;;20.10;64.00;;;;;;5114082;28;20546;-62
2021/09/28 03:38:34;;;;;;;3.88;1.40;;;20.10;64.00;;;;;;5113644;28;20052;-61
2021/09/28 03:41:00;;;;;;;4.03;1.10;;;20.10;64.00;;;;;;5113865;28;20055;-61
2021/09/28 03:43:26;;;;;;;5.25;1.33;;;20.20;63.90;;;;;;5113825;28;20047;-61
2021/09/28 03:45:52;;;;;;;3.80;1.20;;;20.20;63.90;;;;;;5113776;28;20035;-61
2021/09/28 03:48:18;;;;;;;4.47;1.60;;;20.10;64.00;;;;;;5113817;28;20024;-61
2021/09/28 03:50:43;;;;;;;4.97;1.42;;;20.10;64.00;;;;;;5113697;28;20425;-61
2021/09/28 03:53:09;;;;;;;4.85;1.20;;;20.10;64.00;;;;;;5113893;28;20106;-61
2021/09/28 03:55:35;;;;;;;4.88;1.77;;;20.10;64.00;;;;;;5095362;28;20106;-61
2021/09/28 03:58:01;;;;;;;4.43;1.35;;;20.10;64.00;;;;;;5113901;28;20016;-61
2021/09/28 04:00:27;;;;;;;3.58;1.10;;;20.10;64.00;;;;;;5113602;28;20110;-61
2021/09/28 04:02:53;;;;;;;3.45;1.25;;;20.10;63.90;;;;;;5113415;28;20062;-61
2021/09/28 04:05:19;;;;;;;5.43;1.25;;;20.10;64.00;;;;;;5113553;28;20062;-61
2021/09/28 04:07:44;;;;;;;4.70;1.30;;;20.00;64.00;;;;;;5113769;28;20027;-61
2021/09/28 04:10:10;;;;;;;2.38;1.10;;;20.10;64.00;;;;;;5113419;28;20028;-61
2021/09/28 04:12:37;;;;;;;4.07;1.55;;;20.00;64.00;;;;;;5113483;28;20104;-62
2021/09/28 04:15:04;;;;;;;2.03;0.90;;;20.10;63.90;;;;;;5113417;28;20061;-61
2021/09/28 04:17:31;;;;;;;3.63;1.20;;;20.10;64.00;;;;;;5113382;28;20521;-61
2021/09/28 04:19:57;;;;;;;5.22;1.33;;;20.00;64.00;;;;;;5113561;28;20153;-63
2021/09/28 04:22:23;;;;;;;2.78;1.10;;;20.00;64.00;;;;;;5113276;28;20040;-62
2021/09/28 04:24:49;;;;;;;4.00;1.02;;;20.00;64.00;;;;;;5113331;28;20023;-61
2021/09/28 04:27:19;;;;;;;6.60;1.40;;;20.00;64.00;;;;;;5113237;28;20020;-61
2021/09/28 04:29:45;;;;;;;3.35;1.10;;;20.00;64.00;;;;;;5113163;28;20471;-62
2021/09/28 04:32:11;;;;;;;3.65;1.25;;;20.00;64.00;;;;;;5113461;28;20023;-62
2021/09/28 04:34:37;;;;;;;4.45;1.00;;;20.00;64.00;;;;;;5113241;28;20030;-62
2021/09/28 04:37:03;;;;;;;5.28;1.40;;;20.00;64.00;;;;;;5113193;28;20058;-62
2021/09/28 04:39:29;;;;;;;3.30;1.17;;;20.00;64.00;;;;;;5113007;28;20051;-61
2021/09/28 04:41:55;;;;;;;4.07;1.25;;;20.00;64.00;;;;;;5114637;28;20076;-61
2021/09/28 04:44:20;;;;;;;4.22;1.30;;;20.00;64.00;;;;;;5098943;28;20538;-62
2021/09/28 04:46:46;;;;;;;3.13;1.00;;;20.00;64.00;;;;;;5117154;28;20047;-61
2021/09/28 04:49:11;;;;;;;5.03;1.40;;;20.00;64.00;;;;;;5117146;28;20055;-61
2021/09/28 04:51:37;;;;;;;4.18;1.52;;;20.00;64.10;;;;;;5117069;28;20024;-61
2021/09/28 04:54:03;;;;;;;3.58;0.90;;;20.00;64.00;;;;;;5117160;28;20034;-62
2021/09/28 04:56:29;;;;;;;6.07;1.42;;;20.00;64.00;;;;;;5116936;28;20509;-61
2021/09/28 04:58:55;;;;;;;3.70;1.20;;;20.00;64.10;;;;;;5116837;28;20063;-61
2021/09/28 05:01:20;;;;;;;3.83;1.40;;;20.00;64.10;;;;;;5116864;28;20023;-62
2021/09/28 05:03:46;;;;;;;4.38;1.27;;;20.00;64.10;;;;;;5098605;28;20039;-61
2021/09/28 05:06:13;;;;;;;3.20;1.13;;;20.00;64.00;;;;;;5116865;28;20031;-62
2021/09/28 05:08:39;;;;;;;3.83;1.10;;;20.00;64.00;;;;;;5116772;28;20024;-61
2021/09/28 05:11:08;;;;;;;2.03;0.90;;;19.90;64.00;;;;;;5116705;28;20486;-61
2021/09/28 05:13:34;;;;;;;3.05;1.10;;;19.90;64.00;;;;;;5116838;28;20107;-61
2021/09/28 05:15:59;;;;;;;4.07;1.40;;;20.00;64.00;;;;;;5116853;28;20123;-61
2021/09/28 05:18:25;;;;;;;4.15;1.20;;;20.00;64.00;;;;;;5116627;28;20130;-61
2021/09/28 05:20:50;;;;;;;2.90;1.15;;;19.90;64.00;;;;;;5116845;28;20020;-61
2021/09/28 05:23:16;;;;;;;4.80;1.27;;;19.90;64.10;;;;;;5116621;28;20027;-61
2021/09/28 05:25:41;;;;;;;3.38;1.30;;;19.90;64.00;;;;;;5116491;28;20077;-61
2021/09/28 05:28:07;;;;;;;5.50;1.15;;;19.90;64.00;;;;;;5116587;28;20026;-62
2021/09/28 05:30:32;;;;;;;2.28;1.02;;;19.90;64.00;;;;;;5116256;28;20078;-61
2021/09/28 05:32:58;;;;;;;4.90;1.25;;;19.90;64.00;;;;;;5116220;28;20031;-61
2021/09/28 05:35:23;;;;;;;4.28;1.38;;;19.90;64.00;;;;;;5097976;28;20027;-61
2021/09/28 05:37:49;;;;;;;4.78;1.30;;;19.90;64.10;;;;;;5116122;28;20026;-61
2021/09/28 05:40:15;;;;;;;5.13;1.20;;;19.80;64.00;;;;;;5116155;28;20111;-61
2021/09/28 05:42:40;;;;;;;3.67;1.00;;;19.90;64.00;;;;;;5115928;28;20360;-61
2021/09/28 05:45:07;;;;;;;3.05;1.00;;;19.90;64.00;;;;;;5116304;28;20072;-61
2021/09/28 05:47:32;;;;;;;5.00;1.25;;;19.80;64.00;;;;;;5115931;28;20080;-61
2021/09/28 05:49:58;;;;;;;3.88;1.20;;;19.80;64.00;;;;;;5116011;28;20019;-61
2021/09/28 05:52:23;;;;;;;3.75;1.20;;;19.80;64.10;;;;;;5115662;28;20386;-61
2021/09/28 05:54:49;;;;;;;2.67;0.90;;;19.90;64.00;;;;;;5114937;28;20458;-61
2021/09/28 05:57:15;;;;;;;3.80;1.23;;;19.80;64.00;;;;;;5115803;28;20532;-61
2021/09/28 05:59:41;;;;;;;3.65;1.05;;;19.80;64.00;;;;;;5115881;28;20081;-61
2021/09/28 06:02:07;;;;;;;4.13;1.27;;;19.90;64.00;;;;;;5115830;28;20032;-62
2021/09/28 06:04:35;;;;;;;2.88;1.20;;;19.80;64.00;;;;;;5115740;28;20036;-61
2021/09/28 06:07:01;;;;;;;3.60;1.02;;;19.80;64.00;;;;;;5115894;28;20028;-61
2021/09/28 06:09:27;;;;;;;5.53;1.55;;;19.80;64.00;;;;;;5115573;28;20027;-61
2021/09/28 06:11:53;;;;;;;3.15;1.17;;;19.80;63.90;;;;;;5115393;28;20076;-61
2021/09/28 06:14:18;;;;;;;4.07;0.90;;;19.80;63.90;;;;;;5115779;28;20063;-61
2021/09/28 06:16:44;;;;;;;2.28;1.05;;;19.80;64.00;;;;;;5115196;28;20023;-61
2021/09/28 06:19:10;;;;;;;5.15;1.30;;;19.80;63.90;;;;;;5114258;28;20412;-62
2021/09/28 06:21:35;;;;;;;5.05;1.33;;;19.80;64.00;;;;;;5114674;27;20043;-62
2021/09/28 06:24:01;;;;;;;4.10;1.30;;;19.80;64.00;;;;;;5127884;27;20023;-62
2021/09/28 06:26:26;;;;;;;3.80;1.30;;;19.80;63.90;;;;;;5133526;27;20031;-61
2021/09/28 06:28:52;;;;;;;3.35;1.00;;;19.80;64.00;;;;;;5121206;27;20033;-61
2021/09/28 06:31:18;;;;;;;4.55;1.30;;;19.70;64.10;;;;;;5135158;27;20023;-61
2021/09/28 06:33:43;;;;;;;4.15;1.08;;;19.80;64.00;;;;;;5135032;27;20050;-61
2021/09/28 06:36:09;;;;;;;3.88;1.27;;;19.80;63.90;;;;;;5123827;27;20114;-61
2021/09/28 06:38:34;;;;;;;2.78;0.95;;;19.80;64.00;;;;;;5114200;28;20098;-62
2021/09/28 06:41:00;;;;;;;5.25;1.20;;;19.80;64.00;;;;;;5114094;28;20386;-62
2021/09/28 06:43:25;;;;;;;2.80;1.00;;;19.80;64.10;;;;;;5114046;28;20383;-62
2021/09/28 06:45:52;;;;;;;7.55;1.63;;;19.80;64.10;;;;;;5114159;28;20015;-61
2021/09/28 06:48:18;;;;;;;3.95;1.42;;;19.80;64.00;;;;;;5114139;28;20028;-61
2021/09/28 06:50:45;;;;;;;4.18;1.33;;;19.80;64.10;;;;;;5102576;27;20028;-62
2021/09/28 06:53:11;;;;;;;2.92;1.20;;;19.90;64.10;;;;;;5134676;27;20045;-61
2021/09/28 06:55:37;;;;;;;5.35;1.25;;;19.80;64.00;;;;;;5134444;27;20031;-61
2021/09/28 06:58:06;;;;;;;3.95;1.50;;;19.80;64.00;;;;;;5134492;27;20520;-61
2021/09/28 07:00:35;;;;;;;5.32;1.17;;;19.90;64.00;;;;;;5134360;27;20467;-61
2021/09/28 07:03:01;;;;;;;3.67;1.30;;;19.80;64.00;;;;;;5134256;27;20035;-61
2021/09/28 07:05:27;;;;;;;5.93;1.40;;;19.90;64.00;;;;;;5129424;27;20103;-61
2021/09/28 07:07:52;;;;;;;2.47;1.00;;;19.80;64.00;;;;;;5078569;28;20023;-61
2021/09/28 07:10:18;;;;;;;4.20;1.10;;;19.90;63.90;;;;;;5113661;28;20031;-61
2021/09/28 07:12:43;;;;;;;5.55;1.20;;;19.90;63.90;;;;;;5113730;28;20028;-60
2021/09/28 07:15:09;;;;;;;4.50;1.05;;;19.90;63.90;;;;;;5095573;28;20383;-61
2021/09/28 07:17:35;;;;;;;3.60;1.40;;;19.90;63.90;;;;;;5113663;28;20580;-61
2021/09/28 07:20:04;;;;;;;2.92;0.93;;;19.90;63.90;;;;;;5113511;28;20028;-62
2021/09/28 07:22:31;;;;;;;6.97;1.33;;;20.00;63.80;;;;;;5113168;28;20039;-61
2021/09/28 07:24:57;;;;;;;4.03;0.95;;;20.00;63.70;;;;;;5113520;28;20016;-61
2021/09/28 07:27:22;;;;;;;3.50;1.30;;;20.00;63.70;;;;;;5113205;28;20356;-62
2021/09/28 07:29:48;;;;;;;2.63;1.15;;;20.00;63.60;;;;;;5113397;28;20108;-61
2021/09/28 07:32:14;;;;;;;4.72;1.50;;;20.00;63.70;;;;;;5113193;28;20028;-61
2021/09/28 07:34:40;;;;;;;3.80;1.20;;;20.00;63.60;;;;;;5113199;28;20038;-61
2021/09/28 07:37:06;;;;;;;5.30;1.50;;;20.00;63.60;;;;;;5113114;28;20417;-61
2021/09/28 07:39:32;;;;;;;7.07;1.45;;;20.00;63.60;;;;;;5125008;27;20054;-61
2021/09/28 07:41:58;;;;;;;3.17;1.08;;;20.00;63.50;;;;;;5133789;27;20040;-61
2021/09/28 07:44:24;;;;;;;6.78;1.25;;;20.00;63.50;;;;;;5127758;27;20084;-61
2021/09/28 07:46:51;;;;;;;5.32;1.73;;;20.00;63.50;;;;;;5113132;28;20069;-61
2021/09/28 07:49:17;;;;;;;2.28;1.00;;;20.00;63.50;;;;;;5116946;27;20509;-61
2021/09/28 07:51:43;;;;;;;4.68;1.27;;;20.00;63.50;;;;;;5112774;28;20051;-61
2021/09/28 07:54:08;;;;;;;5.18;1.38;;;20.10;63.40;;;;;;5113176;28;20031;-61
2021/09/28 07:56:34;;;;;;;3.78;1.30;;;20.10;63.40;;;;;;5112970;28;20023;-62
2021/09/28 07:58:59;;;;;;;4.50;1.13;;;20.10;63.40;;;;;;5112829;28;20032;-61
2021/09/28 08:01:25;;;;;;;5.40;1.80;;;20.10;63.30;;;;;;5112893;28;20020;-61
2021/09/28 08:03:51;;;;;;;4.70;1.45;;;20.10;63.30;;;;;;5112694;28;20043;-61
2021/09/28 08:06:17;;;;;;;2.45;1.00;;;20.10;63.30;;;;;;5112641;28;20027;-61
2021/09/28 08:08:42;;;;;;;6.40;1.10;;;20.10;63.20;;;;;;5116703;27;20047;-61
2021/09/28 08:11:08;;;;;;;3.30;1.17;;;20.10;63.20;;;;;;5115098;27;20020;-62
2021/09/28 08:13:34;;;;;;;3.50;1.10;;;20.10;63.20;;;;;;5116757;28;20418;-61
2021/09/28 08:16:00;;;;;;;2.47;1.05;;;20.10;63.20;;;;;;5132445;27;20023;-61
2021/09/28 08:18:25;;;;;;;2.55;1.20;;;20.20;63.30;;;;;;5132836;28;20792;-62
2021/09/28 08:20:52;;;;;;;4.28;1.10;;;20.10;63.20;;;;;;5133070;28;20019;-61
2021/09/28 08:23:20;;;;;;;4.80;1.40;;;20.20;63.20;;;;;;5112542;28;20050;-61
2021/09/28 08:26:01;;;;;;;6.72;1.90;;;20.10;63.20;;;;;;5112657;28;20030;-61
2021/09/28 08:31:11;;;;;;;;;;;20.00;63.40;;;;;;5113013;28;20058;-61
2021/09/28 08:33:38;;;;;;;4.18;1.20;;;20.00;63.50;;;;;;5093818;28;19943;-61
2021/09/28 08:36:05;;;;;;;2.72;0.95;;;20.00;63.50;;;;;;5112336;28;20024;-61
2021/09/28 08:38:31;;;;;;;4.72;1.42;;;20.10;63.40;;;;;;5112083;28;20040;-61
2021/09/28 08:40:58;;;;;;;4.93;1.40;;;20.10;63.40;;;;;;5118283;28;20232;-61
2021/09/28 08:43:24;;;;;;;4.10;0.90;;;20.10;63.20;;;;;;5132796;28;20179;-61
2021/09/28 08:45:50;;;;;;;6.40;1.60;;;20.10;63.20;;;;;;5133047;28;20466;-60
2021/09/28 08:48:17;;;;;;;5.60;1.23;;;20.10;63.20;;;;;;5132610;28;20032;-61
2021/09/28 08:50:47;;;;;;;4.95;1.20;;;20.10;63.20;;;;;;5132618;28;20046;-61
2021/09/28 08:53:17;;;;;;;5.38;1.38;;;20.20;63.10;;;;;;5132371;28;20016;-61
2021/09/28 08:55:43;;;;;;;6.00;1.35;;;20.20;63.00;;;;;;5132713;28;20024;-61
2021/09/28 08:58:18;;;;;;;5.43;1.55;;;20.20;63.00;;;;;;5132090;28;20023;-60
2021/09/28 09:00:45;;;;;;;3.60;1.20;;;20.20;62.90;;;;;;5114967;28;20023;-61
2021/09/28 09:03:29;;;;;;;5.75;1.42;;;20.20;62.90;;;;;;5111756;28;20036;-61
2021/09/28 09:05:57;;;;;;;11.48;1.67;;;20.20;63.00;;;;;;5110413;28;20486;-62
2021/09/28 09:08:24;;;;;;;3.95;1.33;;;20.20;62.90;;;;;;5111556;28;20047;-62
2021/09/28 09:11:06;;;;;;;5.70;1.50;;;20.20;63.00;;;;;;5112361;28;20016;-62
2021/09/28 09:13:35;;;;;;;4.20;1.17;;;20.20;62.90;;;;;;5093213;28;20383;-62
2021/09/28 09:16:01;;;;;;;3.00;1.13;;;20.20;62.90;;;;;;5111829;28;20160;-63
2021/09/28 09:18:27;;;;;;;5.40;1.50;;;20.20;62.90;;;;;;5111742;28;20122;-62
2021/09/28 09:20:53;;;;;;;3.53;1.23;;;20.20;63.00;;;;;;5111924;28;20534;-62
2021/09/28 09:23:35;;;;;;;3.53;1.20;;;20.20;63.00;;;;;;5092944;28;20032;-62
2021/09/28 09:26:14;;;;;;;5.70;1.23;;;20.20;62.90;;;;;;5111714;28;20027;-61
2021/09/28 09:28:55;;;;;;;4.57;1.30;;;20.30;62.70;;;;;;5113740;28;20053;-62
2021/09/28 09:31:22;;;;;;;5.13;1.17;;;20.20;62.90;;;;;;5115108;28;20116;-62
2021/09/28 09:33:51;;;;;;;4.10;1.40;;;20.30;62.80;;;;;;5117528;27;20011;-62
2021/09/28 09:36:18;;;;;;;5.60;1.48;;;20.30;62.70;;;;;;5127704;27;20030;-62
2021/09/28 09:38:55;;;;;;;5.07;1.20;;;20.30;62.70;;;;;;5115818;27;20138;-62
2021/09/28 09:41:33;;;;;;;3.97;1.05;;;20.40;62.60;;;;;;5079229;28;20028;-62
2021/09/28 09:44:07;;;;;;;4.15;1.15;;;20.40;62.50;;;;;;5114904;28;20099;-62
2021/09/28 09:46:39;;;;;;;;;;;20.40;62.40;;;;;;5115251;28;20046;-62
2021/09/28 09:49:06;;;;;;;5.22;1.42;;;20.50;62.40;;;;;;5120215;27;19903;-63
2021/09/28 09:51:40;;;;;;;3.17;1.30;;;20.50;62.30;;;;;;5135420;27;20051;-63
2021/09/28 09:54:06;;;;;;;7.70;1.70;;;20.50;62.40;;;;;;5135240;27;20035;-62
2021/09/28 09:56:52;;;;;;;4.78;1.13;;;20.50;62.30;;;;;;5135267;27;20035;-62
2021/09/28 09:59:20;;;;;;;4.53;1.20;;;20.50;62.30;;;;;;5129846;27;20031;-62
2021/09/28 10:01:46;;;;;;;5.40;1.38;;;20.50;62.20;;;;;;5114509;28;20471;-62
2021/09/28 10:04:20;;;;;;;6.00;1.17;;;20.50;62.20;;;;;;5114369;28;20032;-63
2021/09/28 10:06:46;;;;;;;4.18;1.25;;;20.50;62.20;;;;;;5114374;28;20024;-62
2021/09/28 10:09:18;;;;;;;3.17;0.98;;;20.60;62.10;;;;;;5114398;28;20055;-60
2021/09/28 10:11:44;;;;;;;4.63;1.20;;;20.60;62.00;;;;;;5129649;27;20390;-63
2021/09/28 10:14:33;;;;;;;5.13;1.35;;;20.60;62.00;;;;;;5134866;27;20023;-62
2021/09/28 10:17:00;;;;;;;3.97;1.30;;;20.60;62.00;;;;;;5100291;27;20023;-63
2021/09/28 10:19:26;;;;;;;3.47;1.13;;;20.70;62.00;;;;;;5135061;27;20024;-62
2021/09/28 10:21:53;;;;;;;6.15;1.30;;;20.70;62.00;;;;;;5134566;27;20038;-62
2021/09/28 10:24:18;;;;;;;4.32;1.40;;;20.70;62.00;;;;;;5134311;27;20110;-62
2021/09/28 10:26:46;;;;;;;2.92;1.20;;;20.70;61.90;;;;;;5134833;27;20054;-62
2021/09/28 10:29:37;;;;;;;3.38;1.20;;;20.70;61.90;;;;;;5134824;27;20031;-63
2021/09/28 10:32:21;;;;;;;4.45;1.40;;;20.80;61.80;;;;;;5134505;27;20080;-62
2021/09/28 10:35:01;;;;;;;4.95;1.20;;;20.80;61.80;;;;;;5134465;27;20231;-61
2021/09/28 10:37:49;;;;;;;4.78;1.20;;;20.70;61.90;;;;;;5123878;27;20490;-62
2021/09/28 10:40:14;;;;;;;2.97;1.20;;;20.80;61.80;;;;;;5113270;28;20044;-62
2021/09/28 10:42:51;;;;;;;3.50;1.20;;;20.80;61.80;;;;;;5113790;28;20034;-62
2021/09/28 10:45:30;;;;;;;4.35;1.30;;;20.80;61.80;;;;;;5113693;28;20479;-62
2021/09/28 10:48:18;;;;;;;6.47;1.25;;;20.80;61.80;;;;;;5113960;28;20096;-62
2021/09/28 10:50:45;;;;;;;2.88;0.98;;;20.90;61.70;;;;;;5113840;28;20352;-62
2021/09/28 10:53:20;;;;;;;5.97;1.05;;;20.90;61.80;;;;;;5113479;28;20482;-62
2021/09/28 10:56:14;;;;;;;5.13;1.38;;;20.90;61.90;;;;;;5113691;28;20032;-62
2021/09/28 10:59:01;;;;;;;3.60;1.35;;;20.90;62.00;;;;;;5116552;27;20140;-62
2021/09/28 11:01:28;;;;;;;7.07;1.50;;;20.90;62.00;;;;;;5134141;27;20027;-61
2021/09/28 11:03:56;;;;;;;3.15;1.35;;;20.90;61.90;;;;;;5134345;27;20038;-62
2021/09/28 11:06:40;;;;;;;3.78;1.40;;;20.90;61.90;;;;;;5134108;27;20296;-62
2021/09/28 11:09:09;;;;;;;3.80;1.27;;;21.00;61.90;;;;;;5113371;28;20024;-62
2021/09/28 11:11:35;;;;;;;5.47;1.63;;;21.00;61.90;;;;;;5113575;28;20098;-62
2021/09/28 11:14:03;;;;;;;3.90;1.40;;;21.00;61.90;;;;;;5113477;28;20028;-62
2021/09/28 11:16:28;;;;;;;3.80;1.15;;;21.00;61.90;;;;;;5113230;28;20520;-61
2021/09/28 11:19:00;;;;;;;4.70;1.20;;;21.00;61.90;;;;;;5113110;28;20031;-62
2021/09/28 11:21:26;;;;;;;7.65;1.48;;;21.00;61.90;;;;;;5113121;28;20054;-61
2021/09/28 11:23:55;;;;;;;5.95;1.27;;;21.00;61.80;;;;;;5113182;28;20095;-62
2021/09/28 11:26:38;;;;;;;4.07;1.50;;;21.00;61.80;;;;;;5113209;28;20027;-62
2021/09/28 11:29:09;;;;;;;6.82;1.25;;;21.00;61.80;;;;;;5113270;28;20139;-62
2021/09/28 11:31:37;;;;;;;3.72;1.42;;;21.00;61.80;;;;;;5113093;28;20023;-62
2021/09/28 11:34:03;;;;;;;3.15;1.00;;;21.10;61.70;;;;;;5113006;28;20015;-61
2021/09/28 11:36:35;;;;;;;2.80;1.05;;;21.10;61.70;;;;;;5112619;28;20533;-61
2021/09/28 11:39:01;;;;;;;6.15;1.35;;;21.10;61.60;;;;;;5115384;27;20494;-62
2021/09/28 11:41:27;;;;;;;4.18;1.10;;;21.10;61.60;;;;;;5133531;27;20386;-61
2021/09/28 11:43:58;;;;;;;4.40;0.90;;;21.20;61.50;;;;;;5133451;27;20022;-61
2021/09/28 11:46:26;;;;;;;4.22;1.30;;;21.20;61.50;;;;;;5133633;27;20382;-61
2021/09/28 11:48:58;;;;;;;3.35;1.13;;;21.20;61.50;;;;;;5133376;27;20019;-62
2021/09/28 11:51:33;;;;;;;3.20;1.17;;;21.30;61.30;;;;;;5115395;27;20470;-62
2021/09/28 11:53:59;;;;;;;;;;;21.30;61.30;;;;;;5133850;27;20033;-61
2021/09/28 11:56:27;;;;;;;5.05;1.30;;;21.30;61.20;;;;;;5133372;27;19907;-62
2021/09/28 11:58:54;;;;;;;2.67;1.08;;;21.30;61.20;;;;;;5122092;27;20471;-62
2021/09/28 12:01:22;;;;;;;2.42;0.90;;;21.30;61.20;;;;;;5112407;28;20375;-61
2021/09/28 12:09:47;;;;;;;3.60;1.10;;;21.40;61.20;;;;;;5133110;27;20027;-61
2021/09/28 12:12:25;;;;;;;6.82;1.48;;;21.40;61.10;;;;;;5132839;27;20023;-62
2021/09/28 12:14:53;;;;;;;4.22;1.30;;;21.50;61.20;;;;;;5132842;27;20416;-62
2021/09/28 12:17:29;;;;;;;3.95;1.33;;;21.40;61.20;;;;;;5132160;27;20238;-62
2021/09/28 12:19:57;;;;;;;5.50;1.10;;;21.40;61.10;;;;;;5132892;27;20023;-62
2021/09/28 12:22:28;;;;;;;3.60;1.00;;;21.40;61.10;;;;;;5114793;28;20032;-62
2021/09/28 12:24:54;;;;;;;4.80;1.60;;;21.40;61.10;;;;;;5132973;28;20122;-62
2021/09/28 12:27:22;;;;;;;3.90;1.33;;;21.40;61.10;;;;;;5132973;28;20037;-61
2021/09/28 12:29:49;;;;;;;3.58;1.00;;;21.40;61.10;;;;;;5132938;28;20105;-62
2021/09/28 12:32:23;;;;;;;6.03;1.10;;;21.40;61.20;;;;;;5132944;28;20027;-62
2021/09/28 12:34:53;;;;;;;3.85;1.10;;;21.50;61.10;;;;;;5129943;28;20023;-62
2021/09/28 12:37:19;;;;;;;4.35;1.23;;;21.40;61.10;;;;;;5131191;28;20031;-62
2021/09/28 12:40:04;;;;;;;4.53;1.23;;;21.40;61.10;;;;;;5132477;28;20534;-63
2021/09/28 12:42:31;;;;;;;2.90;0.93;;;21.50;61.00;;;;;;5131189;28;20027;-62
2021/09/28 12:45:17;;;;;;;3.78;1.20;;;21.50;61.10;;;;;;5132882;28;20072;-62
2021/09/28 12:47:59;;;;;;;4.30;1.10;;;21.50;61.10;;;;;;5133239;28;20073;-62
2021/09/28 12:50:34;;;;;;;4.03;1.30;;;21.50;61.10;;;;;;5133255;28;20031;-63
2021/09/28 12:53:10;;;;;;;4.43;1.40;;;21.40;61.10;;;;;;5131454;28;20023;-62
2021/09/28 12:55:37;;;;;;;4.15;1.00;;;21.40;61.10;;;;;;5131239;28;20026;-63
2021/09/28 12:58:12;;;;;;;3.50;1.00;;;21.40;61.10;;;;;;5131564;28;20031;-62
2021/09/28 13:00:39;;;;;;;6.07;1.30;;;21.40;61.20;;;;;;5131645;28;20031;-62